sensor_id;sensor_type;location;lat;lon;timestamp;P1;durP1;ratioP1;P2;durP2;ratioP2
20179;SDS011;10249;48.900;9.090;2022-07-17T00:00:38;13.20;;;12.70;;
20179;SDS011;10249;48.900;9.090;2022-07-17T00:03:07;13.20;;;12.70;;
20179;SDS011;10249;48.900;9.090;2022-07-17T00:05:34;13.07;;;12.57;;
20179;SDS011;10249;48.900;9.090;2022-07-17T00:08:02;13.20;;;12.70;;
20179;SDS011;10249;48.900;9.090;2022-07-17T00:10:30;13.00;;;12.50;;
20179;SDS011;10249;48.900;9.090;2022-07-17T00:12:57;13.30;;;12.80;;
20179;SDS011;10249;48.900;9.090;2022-07-17T00:15:24;13.20;;;12.70;;
20179;SDS011;10249;48.900;9.090;2022-07-17T00:17:51;13.30;;;12.80;;
20179;SDS011;10249;48.900;9.090;2022-07-17T00:20:18;13.10;;;12.60;;
20179;SDS011;10249;48.900;9.090;2022-07-17T00:22:45;12.93;;;12.43;;
20179;SDS011;10249;48.900;9.090;2022-07-17T00:25:13;13.10;;;12.60;;
20179;SDS011;10249;48.900;9.090;2022-07-17T00:27:41;13.40;;;12.90;;
20179;SDS011;10249;48.900;9.090;2022-07-17T00:30:09;13.20;;;12.70;;
20179;SDS011;10249;48.900;9.090;2022-07-17T00:32:37;13.27;;;12.77;;
20179;SDS011;10249;48.900;9.090;2022-07-17T00:35:04;13.10;;;12.60;;
20179;SDS011;10249;48.900;9.090;2022-07-17T00:37:37;13.20;;;12.70;;
20179;SDS011;10249;48.900;9.090;2022-07-17T00:40:04;13.00;;;12.50;;
20179;SDS011;10249;48.900;9.090;2022-07-17T00:42:31;12.80;;;12.30;;
20179;SDS011;10249;48.900;9.090;2022-07-17T00:45:00;12.80;;;12.30;;
20179;SDS011;10249;48.900;9.090;2022-07-17T00:47:27;12.70;;;12.20;;
20179;SDS011;10249;48.900;9.090;2022-07-17T00:49:54;12.70;;;12.20;;
20179;SDS011;10249;48.900;9.090;2022-07-17T00:52:21;12.50;;;12.00;;
20179;SDS011;10249;48.900;9.090;2022-07-17T00:54:48;12.50;;;12.00;;
20179;SDS011;10249;48.900;9.090;2022-07-17T00:57:17;12.60;;;12.10;;
20179;SDS011;10249;48.900;9.090;2022-07-17T00:59:45;12.30;;;11.80;;
20179;SDS011;10249;48.900;9.090;2022-07-17T01:02:13;12.50;;;12.00;;
20179;SDS011;10249;48.900;9.090;2022-07-17T01:04:40;12.70;;;12.20;;
20179;SDS011;10249;48.900;9.090;2022-07-17T01:07:07;12.60;;;12.10;;
20179;SDS011;10249;48.900;9.090;2022-07-17T01:09:35;12.30;;;11.80;;
20179;SDS011;10249;48.900;9.090;2022-07-17T01:12:02;12.10;;;11.60;;
20179;SDS011;10249;48.900;9.090;2022-07-17T01:14:29;12.10;;;11.60;;
20179;SDS011;10249;48.900;9.090;2022-07-17T01:16:56;11.80;;;11.40;;
20179;SDS011;10249;48.900;9.090;2022-07-17T01:19:24;12.00;;;11.60;;
20179;SDS011;10249;48.900;9.090;2022-07-17T01:21:53;11.77;;;11.37;;
20179;SDS011;10249;48.900;9.090;2022-07-17T01:24:20;11.53;;;11.13;;
20179;SDS011;10249;48.900;9.090;2022-07-17T01:26:47;11.57;;;11.17;;
20179;SDS011;10249;48.900;9.090;2022-07-17T01:29:15;11.30;;;10.90;;
20179;SDS011;10249;48.900;9.090;2022-07-17T01:31:43;11.10;;;10.70;;
20179;SDS011;10249;48.900;9.090;2022-07-17T01:34:10;10.87;;;10.47;;
20179;SDS011;10249;48.900;9.090;2022-07-17T01:36:38;10.90;;;10.50;;
20179;SDS011;10249;48.900;9.090;2022-07-17T01:39:07;10.70;;;10.30;;
20179;SDS011;10249;48.900;9.090;2022-07-17T01:41:34;11.07;;;10.67;;
20179;SDS011;10249;48.900;9.090;2022-07-17T01:44:01;10.40;;;10.00;;
20179;SDS011;10249;48.900;9.090;2022-07-17T01:46:29;9.73;;;9.43;;
20179;SDS011;10249;48.900;9.090;2022-07-17T01:48:56;10.27;;;9.87;;
20179;SDS011;10249;48.900;9.090;2022-07-17T01:51:23;10.30;;;9.90;;
20179;SDS011;10249;48.900;9.090;2022-07-17T01:53:50;10.57;;;10.17;;
20179;SDS011;10249;48.900;9.090;2022-07-17T01:56:19;10.53;;;10.13;;
20179;SDS011;10249;48.900;9.090;2022-07-17T01:58:46;10.40;;;10.00;;
20179;SDS011;10249;48.900;9.090;2022-07-17T02:01:13;10.90;;;10.50;;
20179;SDS011;10249;48.900;9.090;2022-07-17T02:03:40;10.93;;;10.53;;
20179;SDS011;10249;48.900;9.090;2022-07-17T02:06:08;11.00;;;10.60;;
20179;SDS011;10249;48.900;9.090;2022-07-17T02:08:35;11.23;;;10.83;;
20179;SDS011;10249;48.900;9.090;2022-07-17T02:11:02;11.30;;;10.90;;
20179;SDS011;10249;48.900;9.090;2022-07-17T02:13:31;10.83;;;10.43;;
20179;SDS011;10249;48.900;9.090;2022-07-17T02:15:58;10.90;;;10.50;;
20179;SDS011;10249;48.900;9.090;2022-07-17T02:18:25;10.80;;;10.40;;
20179;SDS011;10249;48.900;9.090;2022-07-17T02:20:52;11.20;;;10.80;;
20179;SDS011;10249;48.900;9.090;2022-07-17T02:23:19;10.77;;;10.37;;
20179;SDS011;10249;48.900;9.090;2022-07-17T02:25:46;10.80;;;10.40;;
20179;SDS011;10249;48.900;9.090;2022-07-17T02:28:13;10.80;;;10.40;;
20179;SDS011;10249;48.900;9.090;2022-07-17T02:30:42;10.73;;;10.33;;
20179;SDS011;10249;48.900;9.090;2022-07-17T02:33:09;10.80;;;10.40;;
20179;SDS011;10249;48.900;9.090;2022-07-17T02:35:36;10.80;;;10.40;;
20179;SDS011;10249;48.900;9.090;2022-07-17T02:38:03;10.80;;;10.40;;
20179;SDS011;10249;48.900;9.090;2022-07-17T02:40:30;10.90;;;10.50;;
20179;SDS011;10249;48.900;9.090;2022-07-17T02:42:57;10.70;;;10.30;;
20179;SDS011;10249;48.900;9.090;2022-07-17T02:45:24;10.87;;;10.47;;
20179;SDS011;10249;48.900;9.090;2022-07-17T02:47:53;10.93;;;10.53;;
20179;SDS011;10249;48.900;9.090;2022-07-17T02:50:20;11.27;;;10.87;;
20179;SDS011;10249;48.900;9.090;2022-07-17T02:52:47;11.23;;;10.83;;
20179;SDS011;10249;48.900;9.090;2022-07-17T02:55:15;11.20;;;10.80;;
20179;SDS011;10249;48.900;9.090;2022-07-17T02:57:43;11.40;;;11.00;;
20179;SDS011;10249;48.900;9.090;2022-07-17T03:00:12;11.20;;;10.80;;
20179;SDS011;10249;48.900;9.090;2022-07-17T03:02:40;11.90;;;11.40;;
20179;SDS011;10249;48.900;9.090;2022-07-17T03:05:09;11.17;;;10.77;;
20179;SDS011;10249;48.900;9.090;2022-07-17T03:07:36;11.20;;;10.80;;
20179;SDS011;10249;48.900;9.090;2022-07-17T03:10:04;10.97;;;10.57;;
20179;SDS011;10249;48.900;9.090;2022-07-17T03:12:31;10.90;;;10.50;;
20179;SDS011;10249;48.900;9.090;2022-07-17T03:14:58;11.10;;;10.70;;
20179;SDS011;10249;48.900;9.090;2022-07-17T03:17:25;11.00;;;10.60;;
20179;SDS011;10249;48.900;9.090;2022-07-17T03:19:52;11.10;;;10.70;;
20179;SDS011;10249;48.900;9.090;2022-07-17T03:22:21;11.00;;;10.60;;
20179;SDS011;10249;48.900;9.090;2022-07-17T03:24:48;10.87;;;10.47;;
20179;SDS011;10249;48.900;9.090;2022-07-17T03:27:15;10.80;;;10.40;;
20179;SDS011;10249;48.900;9.090;2022-07-17T03:29:42;10.90;;;10.50;;
20179;SDS011;10249;48.900;9.090;2022-07-17T03:32:09;11.17;;;10.77;;
20179;SDS011;10249;48.900;9.090;2022-07-17T03:34:36;11.20;;;10.80;;
20179;SDS011;10249;48.900;9.090;2022-07-17T03:37:03;10.93;;;10.53;;
20179;SDS011;10249;48.900;9.090;2022-07-17T03:39:32;10.90;;;10.50;;
20179;SDS011;10249;48.900;9.090;2022-07-17T03:41:59;10.83;;;10.43;;
20179;SDS011;10249;48.900;9.090;2022-07-17T03:44:26;10.63;;;10.23;;
20179;SDS011;10249;48.900;9.090;2022-07-17T03:46:53;10.50;;;10.10;;
20179;SDS011;10249;48.900;9.090;2022-07-17T03:49:20;10.50;;;10.10;;
20179;SDS011;10249;48.900;9.090;2022-07-17T03:51:47;10.50;;;10.10;;
20179;SDS011;10249;48.900;9.090;2022-07-17T03:54:14;10.70;;;10.30;;
20179;SDS011;10249;48.900;9.090;2022-07-17T03:56:43;10.47;;;10.07;;
20179;SDS011;10249;48.900;9.090;2022-07-17T03:59:10;10.50;;;10.10;;
20179;SDS011;10249;48.900;9.090;2022-07-17T04:01:37;10.30;;;9.90;;
20179;SDS011;10249;48.900;9.090;2022-07-17T04:04:04;11.10;;;10.70;;
20179;SDS011;10249;48.900;9.090;2022-07-17T04:06:31;10.40;;;10.00;;
20179;SDS011;10249;48.900;9.090;2022-07-17T04:08:58;10.40;;;10.00;;
20179;SDS011;10249;48.900;9.090;2022-07-17T04:11:25;11.67;;;11.17;;
20179;SDS011;10249;48.900;9.090;2022-07-17T04:13:53;11.10;;;10.70;;
20179;SDS011;10249;48.900;9.090;2022-07-17T04:16:20;10.50;;;10.10;;
20179;SDS011;10249;48.900;9.090;2022-07-17T04:18:47;10.03;;;9.73;;
20179;SDS011;10249;48.900;9.090;2022-07-17T04:21:15;10.07;;;9.77;;
20179;SDS011;10249;48.900;9.090;2022-07-17T04:23:42;9.30;;;9.00;;
20179;SDS011;10249;48.900;9.090;2022-07-17T04:26:09;9.13;;;8.83;;
20179;SDS011;10249;48.900;9.090;2022-07-17T04:28:36;8.93;;;8.63;;
20179;SDS011;10249;48.900;9.090;2022-07-17T04:31:04;8.83;;;8.53;;
20179;SDS011;10249;48.900;9.090;2022-07-17T04:33:31;9.40;;;9.10;;
20179;SDS011;10249;48.900;9.090;2022-07-17T04:35:58;9.40;;;9.10;;
20179;SDS011;10249;48.900;9.090;2022-07-17T04:38:25;9.77;;;9.47;;
20179;SDS011;10249;48.900;9.090;2022-07-17T04:40:52;9.43;;;9.13;;
20179;SDS011;10249;48.900;9.090;2022-07-17T04:43:19;9.50;;;9.20;;
20179;SDS011;10249;48.900;9.090;2022-07-17T04:45:46;9.90;;;9.60;;
20179;SDS011;10249;48.900;9.090;2022-07-17T04:48:15;9.97;;;9.67;;
20179;SDS011;10249;48.900;9.090;2022-07-17T04:50:42;10.27;;;9.97;;
20179;SDS011;10249;48.900;9.090;2022-07-17T04:53:09;11.47;;;10.90;;
20179;SDS011;10249;48.900;9.090;2022-07-17T04:55:36;10.23;;;9.93;;
20179;SDS011;10249;48.900;9.090;2022-07-17T04:58:03;10.57;;;10.17;;
20179;SDS011;10249;48.900;9.090;2022-07-17T05:00:31;10.40;;;10.00;;
20179;SDS011;10249;48.900;9.090;2022-07-17T05:02:58;10.70;;;10.30;;
20179;SDS011;10249;48.900;9.090;2022-07-17T05:05:26;10.90;;;10.50;;
20179;SDS011;10249;48.900;9.090;2022-07-17T05:07:53;11.20;;;10.80;;
20179;SDS011;10249;48.900;9.090;2022-07-17T05:10:20;11.40;;;11.00;;
20179;SDS011;10249;48.900;9.090;2022-07-17T05:12:47;11.30;;;10.90;;
20179;SDS011;10249;48.900;9.090;2022-07-17T05:15:14;11.07;;;10.67;;
20179;SDS011;10249;48.900;9.090;2022-07-17T05:17:41;11.13;;;10.73;;
20179;SDS011;10249;48.900;9.090;2022-07-17T05:20:09;11.40;;;11.00;;
20179;SDS011;10249;48.900;9.090;2022-07-17T05:22:37;11.50;;;11.10;;
20179;SDS011;10249;48.900;9.090;2022-07-17T05:25:05;11.53;;;11.13;;
20179;SDS011;10249;48.900;9.090;2022-07-17T05:27:32;11.43;;;11.03;;
20179;SDS011;10249;48.900;9.090;2022-07-17T05:29:59;11.57;;;11.17;;
20179;SDS011;10249;48.900;9.090;2022-07-17T05:32:26;11.60;;;11.20;;
20179;SDS011;10249;48.900;9.090;2022-07-17T05:34:53;12.20;;;11.70;;
20179;SDS011;10249;48.900;9.090;2022-07-17T05:37:20;11.80;;;11.40;;
20179;SDS011;10249;48.900;9.090;2022-07-17T05:39:48;12.10;;;11.60;;
20179;SDS011;10249;48.900;9.090;2022-07-17T05:42:15;12.20;;;11.70;;
20179;SDS011;10249;48.900;9.090;2022-07-17T05:44:43;12.10;;;11.70;;
20179;SDS011;10249;48.900;9.090;2022-07-17T05:47:10;12.20;;;11.70;;
20179;SDS011;10249;48.900;9.090;2022-07-17T05:49:37;12.30;;;11.80;;
20179;SDS011;10249;48.900;9.090;2022-07-17T05:52:04;12.40;;;11.90;;
20179;SDS011;10249;48.900;9.090;2022-07-17T05:54:31;12.30;;;11.80;;
20179;SDS011;10249;48.900;9.090;2022-07-17T05:57:00;13.33;;;12.80;;
20179;SDS011;10249;48.900;9.090;2022-07-17T05:59:27;12.60;;;12.10;;
20179;SDS011;10249;48.900;9.090;2022-07-17T06:01:54;12.53;;;12.03;;
20179;SDS011;10249;48.900;9.090;2022-07-17T06:04:21;12.50;;;12.00;;
20179;SDS011;10249;48.900;9.090;2022-07-17T06:06:48;13.30;;;12.80;;
20179;SDS011;10249;48.900;9.090;2022-07-17T06:09:15;12.93;;;12.43;;
20179;SDS011;10249;48.900;9.090;2022-07-17T06:11:42;12.87;;;12.37;;
20179;SDS011;10249;48.900;9.090;2022-07-17T06:14:10;12.93;;;12.43;;
20179;SDS011;10249;48.900;9.090;2022-07-17T06:16:37;13.60;;;13.00;;
20179;SDS011;10249;48.900;9.090;2022-07-17T06:19:04;13.00;;;12.50;;
20179;SDS011;10249;48.900;9.090;2022-07-17T06:21:31;13.27;;;12.77;;
20179;SDS011;10249;48.900;9.090;2022-07-17T06:23:58;13.40;;;12.90;;
20179;SDS011;10249;48.900;9.090;2022-07-17T06:26:26;13.03;;;12.53;;
20179;SDS011;10249;48.900;9.090;2022-07-17T06:28:53;13.00;;;12.50;;
20179;SDS011;10249;48.900;9.090;2022-07-17T06:31:21;13.00;;;12.50;;
20179;SDS011;10249;48.900;9.090;2022-07-17T06:33:48;20.70;;;19.87;;
20179;SDS011;10249;48.900;9.090;2022-07-17T06:36:15;13.60;;;13.10;;
20179;SDS011;10249;48.900;9.090;2022-07-17T06:38:42;13.37;;;12.87;;
20179;SDS011;10249;48.900;9.090;2022-07-17T06:41:09;13.50;;;13.00;;
20179;SDS011;10249;48.900;9.090;2022-07-17T06:43:36;13.23;;;12.73;;
20179;SDS011;10249;48.900;9.090;2022-07-17T06:46:03;13.20;;;12.70;;
20179;SDS011;10249;48.900;9.090;2022-07-17T06:48:32;13.53;;;13.03;;
20179;SDS011;10249;48.900;9.090;2022-07-17T06:50:59;14.70;;;14.00;;
20179;SDS011;10249;48.900;9.090;2022-07-17T06:53:26;13.73;;;13.13;;
20179;SDS011;10249;48.900;9.090;2022-07-17T06:55:53;13.73;;;13.17;;
20179;SDS011;10249;48.900;9.090;2022-07-17T06:58:20;13.73;;;13.13;;
20179;SDS011;10249;48.900;9.090;2022-07-17T07:00:47;13.60;;;13.10;;
20179;SDS011;10249;48.900;9.090;2022-07-17T07:03:14;13.90;;;13.30;;
20179;SDS011;10249;48.900;9.090;2022-07-17T07:05:42;13.73;;;13.13;;
20179;SDS011;10249;48.900;9.090;2022-07-17T07:08:09;14.40;;;13.80;;
20179;SDS011;10249;48.900;9.090;2022-07-17T07:10:36;13.70;;;13.10;;
20179;SDS011;10249;48.900;9.090;2022-07-17T07:13:03;13.43;;;12.93;;
20179;SDS011;10249;48.900;9.090;2022-07-17T07:15:30;13.60;;;13.10;;
20179;SDS011;10249;48.900;9.090;2022-07-17T07:17:57;13.90;;;13.30;;
20179;SDS011;10249;48.900;9.090;2022-07-17T07:20:25;14.00;;;13.40;;
20179;SDS011;10249;48.900;9.090;2022-07-17T07:22:53;14.30;;;13.70;;
20179;SDS011;10249;48.900;9.090;2022-07-17T07:25:20;14.00;;;13.40;;
20179;SDS011;10249;48.900;9.090;2022-07-17T07:27:47;14.20;;;13.60;;
20179;SDS011;10249;48.900;9.090;2022-07-17T07:30:14;14.27;;;13.67;;
20179;SDS011;10249;48.900;9.090;2022-07-17T07:32:41;14.30;;;13.70;;
20179;SDS011;10249;48.900;9.090;2022-07-17T07:35:08;14.57;;;13.97;;
20179;SDS011;10249;48.900;9.090;2022-07-17T07:37:36;14.30;;;13.70;;
20179;SDS011;10249;48.900;9.090;2022-07-17T07:40:05;14.47;;;13.87;;
20179;SDS011;10249;48.900;9.090;2022-07-17T07:42:33;14.60;;;14.00;;
20179;SDS011;10249;48.900;9.090;2022-07-17T07:45:00;14.70;;;14.10;;
20179;SDS011;10249;48.900;9.090;2022-07-17T07:47:27;15.00;;;14.30;;
20179;SDS011;10249;48.900;9.090;2022-07-17T07:49:54;14.87;;;14.27;;
20179;SDS011;10249;48.900;9.090;2022-07-17T07:52:21;15.73;;;15.00;;
20179;SDS011;10249;48.900;9.090;2022-07-17T07:54:48;14.83;;;14.23;;
20179;SDS011;10249;48.900;9.090;2022-07-17T07:57:16;15.87;;;14.50;;
20179;SDS011;10249;48.900;9.090;2022-07-17T07:59:43;15.07;;;14.37;;
20179;SDS011;10249;48.900;9.090;2022-07-17T08:02:11;14.70;;;14.10;;
20179;SDS011;10249;48.900;9.090;2022-07-17T08:04:38;14.80;;;14.20;;
20179;SDS011;10249;48.900;9.090;2022-07-17T08:07:05;14.67;;;14.07;;
20179;SDS011;10249;48.900;9.090;2022-07-17T08:09:32;15.00;;;14.30;;
20179;SDS011;10249;48.900;9.090;2022-07-17T08:11:59;14.93;;;14.23;;
20179;SDS011;10249;48.900;9.090;2022-07-17T08:14:27;14.63;;;14.03;;
20179;SDS011;10249;48.900;9.090;2022-07-17T08:16:55;14.90;;;14.20;;
20179;SDS011;10249;48.900;9.090;2022-07-17T08:19:22;15.37;;;14.67;;
20179;SDS011;10249;48.900;9.090;2022-07-17T08:21:49;15.03;;;14.33;;
20179;SDS011;10249;48.900;9.090;2022-07-17T08:24:16;15.13;;;14.43;;
20179;SDS011;10249;48.900;9.090;2022-07-17T08:26:43;16.40;;;15.60;;
20179;SDS011;10249;48.900;9.090;2022-07-17T08:29:10;15.10;;;14.40;;
20179;SDS011;10249;48.900;9.090;2022-07-17T08:31:38;15.30;;;14.60;;
20179;SDS011;10249;48.900;9.090;2022-07-17T08:34:05;15.43;;;14.73;;
20179;SDS011;10249;48.900;9.090;2022-07-17T08:36:32;15.60;;;14.90;;
20179;SDS011;10249;48.900;9.090;2022-07-17T08:38:59;15.77;;;15.07;;
20179;SDS011;10249;48.900;9.090;2022-07-17T08:41:27;16.60;;;15.80;;
20179;SDS011;10249;48.900;9.090;2022-07-17T08:43:55;15.80;;;15.10;;
20179;SDS011;10249;48.900;9.090;2022-07-17T08:46:23;16.63;;;15.63;;
20179;SDS011;10249;48.900;9.090;2022-07-17T08:48:53;15.37;;;14.67;;
20179;SDS011;10249;48.900;9.090;2022-07-17T08:51:23;16.63;;;15.73;;
20179;SDS011;10249;48.900;9.090;2022-07-17T08:53:51;15.60;;;14.90;;
20179;SDS011;10249;48.900;9.090;2022-07-17T08:56:18;16.07;;;15.30;;
20179;SDS011;10249;48.900;9.090;2022-07-17T08:58:45;15.50;;;14.80;;
20179;SDS011;10249;48.900;9.090;2022-07-17T09:01:13;16.13;;;15.43;;
20179;SDS011;10249;48.900;9.090;2022-07-17T09:03:41;15.17;;;14.47;;
20179;SDS011;10249;48.900;9.090;2022-07-17T09:06:18;15.30;;;14.60;;
20179;SDS011;10249;48.900;9.090;2022-07-17T09:08:45;16.87;;;15.97;;
20179;SDS011;10249;48.900;9.090;2022-07-17T09:11:12;15.10;;;14.40;;
20179;SDS011;10249;48.900;9.090;2022-07-17T09:13:42;15.30;;;14.60;;
20179;SDS011;10249;48.900;9.090;2022-07-17T09:16:10;15.10;;;14.40;;
20179;SDS011;10249;48.900;9.090;2022-07-17T09:18:42;15.13;;;14.43;;
20179;SDS011;10249;48.900;9.090;2022-07-17T09:21:09;16.20;;;15.30;;
20179;SDS011;10249;48.900;9.090;2022-07-17T09:23:44;15.67;;;14.97;;
20179;SDS011;10249;48.900;9.090;2022-07-17T09:26:11;16.13;;;15.37;;
20179;SDS011;10249;48.900;9.090;2022-07-17T09:28:44;15.77;;;15.07;;
20179;SDS011;10249;48.900;9.090;2022-07-17T09:31:11;16.00;;;15.30;;
20179;SDS011;10249;48.900;9.090;2022-07-17T09:33:39;16.30;;;15.60;;
20179;SDS011;10249;48.900;9.090;2022-07-17T09:36:08;15.80;;;15.10;;
20179;SDS011;10249;48.900;9.090;2022-07-17T09:38:37;16.07;;;15.37;;
20179;SDS011;10249;48.900;9.090;2022-07-17T09:41:11;15.80;;;15.10;;
20179;SDS011;10249;48.900;9.090;2022-07-17T09:43:41;16.23;;;15.40;;
20179;SDS011;10249;48.900;9.090;2022-07-17T09:46:09;16.27;;;15.57;;
20179;SDS011;10249;48.900;9.090;2022-07-17T09:48:41;15.90;;;15.20;;
20179;SDS011;10249;48.900;9.090;2022-07-17T09:51:12;15.70;;;15.00;;
20179;SDS011;10249;48.900;9.090;2022-07-17T09:53:40;16.33;;;15.60;;
20179;SDS011;10249;48.900;9.090;2022-07-17T09:56:12;16.10;;;15.40;;
20179;SDS011;10249;48.900;9.090;2022-07-17T09:58:40;16.00;;;15.30;;
20179;SDS011;10249;48.900;9.090;2022-07-17T10:01:09;15.85;;;15.15;;
20179;SDS011;10249;48.900;9.090;2022-07-17T10:03:37;15.77;;;15.07;;
20179;SDS011;10249;48.900;9.090;2022-07-17T10:06:04;15.67;;;14.97;;
20179;SDS011;10249;48.900;9.090;2022-07-17T10:08:31;15.27;;;14.57;;
20179;SDS011;10249;48.900;9.090;2022-07-17T10:10:59;15.90;;;15.20;;
20179;SDS011;10249;48.900;9.090;2022-07-17T10:13:28;15.50;;;14.80;;
20179;SDS011;10249;48.900;9.090;2022-07-17T10:15:55;15.77;;;14.97;;
20179;SDS011;10249;48.900;9.090;2022-07-17T10:18:33;15.60;;;14.90;;
20179;SDS011;10249;48.900;9.090;2022-07-17T10:21:05;15.70;;;15.00;;
20179;SDS011;10249;48.900;9.090;2022-07-17T10:23:32;15.63;;;14.93;;
20179;SDS011;10249;48.900;9.090;2022-07-17T10:25:59;15.50;;;14.80;;
20179;SDS011;10249;48.900;9.090;2022-07-17T10:28:38;16.03;;;15.27;;
20179;SDS011;10249;48.900;9.090;2022-07-17T10:31:05;16.10;;;15.40;;
20179;SDS011;10249;48.900;9.090;2022-07-17T10:33:32;15.80;;;15.10;;
20179;SDS011;10249;48.900;9.090;2022-07-17T10:35:59;16.05;;;15.25;;
20179;SDS011;10249;48.900;9.090;2022-07-17T10:38:26;16.35;;;15.65;;
20179;SDS011;10249;48.900;9.090;2022-07-17T10:40:58;15.63;;;14.93;;
20179;SDS011;10249;48.900;9.090;2022-07-17T10:43:26;16.20;;;15.40;;
20179;SDS011;10249;48.900;9.090;2022-07-17T10:45:54;16.00;;;15.30;;
20179;SDS011;10249;48.900;9.090;2022-07-17T10:48:22;15.87;;;15.17;;
20179;SDS011;10249;48.900;9.090;2022-07-17T10:50:49;15.73;;;15.02;;
20179;SDS011;10249;48.900;9.090;2022-07-17T10:53:17;16.00;;;15.30;;
20179;SDS011;10249;48.900;9.090;2022-07-17T10:55:48;15.75;;;15.05;;
20179;SDS011;10249;48.900;9.090;2022-07-17T10:58:20;15.55;;;14.85;;
20179;SDS011;10249;48.900;9.090;2022-07-17T11:00:58;16.40;;;15.70;;
20179;SDS011;10249;48.900;9.090;2022-07-17T11:03:26;17.17;;;16.38;;
20179;SDS011;10249;48.900;9.090;2022-07-17T11:05:53;16.40;;;15.70;;
20179;SDS011;10249;48.900;9.090;2022-07-17T11:08:20;15.70;;;15.00;;
20179;SDS011;10249;48.900;9.090;2022-07-17T11:10:47;16.42;;;15.73;;
20179;SDS011;10249;48.900;9.090;2022-07-17T11:13:15;16.13;;;15.43;;
20179;SDS011;10249;48.900;9.090;2022-07-17T11:15:44;16.30;;;15.60;;
20179;SDS011;10249;48.900;9.090;2022-07-17T11:18:14;16.27;;;15.57;;
20179;SDS011;10249;48.900;9.090;2022-07-17T11:20:48;16.23;;;15.52;;
20179;SDS011;10249;48.900;9.090;2022-07-17T11:23:15;16.30;;;15.60;;
20179;SDS011;10249;48.900;9.090;2022-07-17T11:25:51;16.17;;;15.38;;
20179;SDS011;10249;48.900;9.090;2022-07-17T11:28:26;16.27;;;15.50;;
20179;SDS011;10249;48.900;9.090;2022-07-17T11:30:53;16.88;;;16.08;;
20179;SDS011;10249;48.900;9.090;2022-07-17T11:33:21;16.35;;;15.55;;
20179;SDS011;10249;48.900;9.090;2022-07-17T11:35:48;16.35;;;15.55;;
20179;SDS011;10249;48.900;9.090;2022-07-17T11:38:15;16.00;;;15.30;;
20179;SDS011;10249;48.900;9.090;2022-07-17T11:40:45;16.23;;;15.43;;
20179;SDS011;10249;48.900;9.090;2022-07-17T11:43:13;15.77;;;15.07;;
20179;SDS011;10249;48.900;9.090;2022-07-17T11:45:40;15.98;;;15.27;;
20179;SDS011;10249;48.900;9.090;2022-07-17T11:48:08;15.93;;;15.23;;
20179;SDS011;10249;48.900;9.090;2022-07-17T11:50:36;17.02;;;16.23;;
20179;SDS011;10249;48.900;9.090;2022-07-17T11:53:04;16.35;;;15.55;;
20179;SDS011;10249;48.900;9.090;2022-07-17T11:55:34;16.75;;;15.85;;
20179;SDS011;10249;48.900;9.090;2022-07-17T11:58:02;16.30;;;15.50;;
20179;SDS011;10249;48.900;9.090;2022-07-17T12:00:29;15.43;;;14.73;;
20179;SDS011;10249;48.900;9.090;2022-07-17T12:03:00;15.73;;;15.02;;
20179;SDS011;10249;48.900;9.090;2022-07-17T12:05:28;16.45;;;15.65;;
20179;SDS011;10249;48.900;9.090;2022-07-17T12:07:56;17.55;;;16.27;;
20179;SDS011;10249;48.900;9.090;2022-07-17T12:10:24;16.05;;;15.30;;
20179;SDS011;10249;48.900;9.090;2022-07-17T12:12:52;16.23;;;15.43;;
20179;SDS011;10249;48.900;9.090;2022-07-17T12:15:21;15.60;;;14.90;;
20179;SDS011;10249;48.900;9.090;2022-07-17T12:17:48;16.50;;;15.65;;
20179;SDS011;10249;48.900;9.090;2022-07-17T12:20:15;15.52;;;14.82;;
20179;SDS011;10249;48.900;9.090;2022-07-17T12:22:44;16.10;;;15.30;;
20179;SDS011;10249;48.900;9.090;2022-07-17T12:25:22;15.68;;;14.98;;
20179;SDS011;10249;48.900;9.090;2022-07-17T12:27:49;15.75;;;15.05;;
20179;SDS011;10249;48.900;9.090;2022-07-17T12:30:17;15.65;;;14.95;;
20179;SDS011;10249;48.900;9.090;2022-07-17T12:32:44;15.90;;;15.20;;
20179;SDS011;10249;48.900;9.090;2022-07-17T12:35:12;16.50;;;15.60;;
20179;SDS011;10249;48.900;9.090;2022-07-17T12:37:39;16.70;;;15.80;;
20179;SDS011;10249;48.900;9.090;2022-07-17T12:40:07;15.73;;;15.00;;
20179;SDS011;10249;48.900;9.090;2022-07-17T12:42:35;15.85;;;15.07;;
20179;SDS011;10249;48.900;9.090;2022-07-17T12:45:03;15.55;;;14.85;;
20179;SDS011;10249;48.900;9.090;2022-07-17T12:47:30;15.57;;;14.88;;
20179;SDS011;10249;48.900;9.090;2022-07-17T12:49:57;15.52;;;14.82;;
20179;SDS011;10249;48.900;9.090;2022-07-17T12:52:24;15.77;;;15.02;;
20179;SDS011;10249;48.900;9.090;2022-07-17T12:54:51;15.52;;;14.82;;
20179;SDS011;10249;48.900;9.090;2022-07-17T12:57:18;15.15;;;14.45;;
20179;SDS011;10249;48.900;9.090;2022-07-17T12:59:46;15.18;;;14.48;;
20179;SDS011;10249;48.900;9.090;2022-07-17T13:02:13;15.40;;;14.70;;
20179;SDS011;10249;48.900;9.090;2022-07-17T13:04:41;15.40;;;14.70;;
20179;SDS011;10249;48.900;9.090;2022-07-17T13:07:08;15.40;;;14.70;;
20179;SDS011;10249;48.900;9.090;2022-07-17T13:09:35;15.38;;;14.68;;
20179;SDS011;10249;48.900;9.090;2022-07-17T13:12:03;15.25;;;14.55;;
20179;SDS011;10249;48.900;9.090;2022-07-17T13:14:30;15.27;;;14.57;;
20179;SDS011;10249;48.900;9.090;2022-07-17T13:16:58;15.27;;;14.57;;
20179;SDS011;10249;48.900;9.090;2022-07-17T13:19:25;15.35;;;14.65;;
20179;SDS011;10249;48.900;9.090;2022-07-17T13:21:53;15.40;;;14.70;;
20179;SDS011;10249;48.900;9.090;2022-07-17T13:24:20;15.43;;;14.73;;
20179;SDS011;10249;48.900;9.090;2022-07-17T13:26:47;15.10;;;14.40;;
20179;SDS011;10249;48.900;9.090;2022-07-17T13:29:14;15.27;;;14.57;;
20179;SDS011;10249;48.900;9.090;2022-07-17T13:31:41;15.27;;;14.57;;
20179;SDS011;10249;48.900;9.090;2022-07-17T13:34:10;15.35;;;14.65;;
20179;SDS011;10249;48.900;9.090;2022-07-17T13:36:37;15.63;;;14.93;;
20179;SDS011;10249;48.900;9.090;2022-07-17T13:39:04;15.48;;;14.77;;
20179;SDS011;10249;48.900;9.090;2022-07-17T13:41:31;16.60;;;15.70;;
20179;SDS011;10249;48.900;9.090;2022-07-17T13:43:59;15.98;;;15.07;;
20179;SDS011;10249;48.900;9.090;2022-07-17T13:46:26;15.52;;;14.82;;
20179;SDS011;10249;48.900;9.090;2022-07-17T13:48:53;16.08;;;15.27;;
20179;SDS011;10249;48.900;9.090;2022-07-17T13:51:21;15.40;;;14.60;;
20179;SDS011;10249;48.900;9.090;2022-07-17T13:53:48;15.45;;;14.75;;
20179;SDS011;10249;48.900;9.090;2022-07-17T13:56:16;15.77;;;14.98;;
20179;SDS011;10249;48.900;9.090;2022-07-17T13:58:43;14.93;;;14.23;;
20179;SDS011;10249;48.900;9.090;2022-07-17T14:01:11;15.05;;;14.35;;
20179;SDS011;10249;48.900;9.090;2022-07-17T14:03:38;15.07;;;14.38;;
20179;SDS011;10249;48.900;9.090;2022-07-17T14:06:05;15.00;;;14.30;;
20179;SDS011;10249;48.900;9.090;2022-07-17T14:08:34;14.82;;;14.13;;
20179;SDS011;10249;48.900;9.090;2022-07-17T14:11:02;15.55;;;14.75;;
20179;SDS011;10249;48.900;9.090;2022-07-17T14:13:29;15.63;;;14.82;;
20179;SDS011;10249;48.900;9.090;2022-07-17T14:15:56;15.02;;;14.32;;
20179;SDS011;10249;48.900;9.090;2022-07-17T14:18:23;15.07;;;14.38;;
20179;SDS011;10249;48.900;9.090;2022-07-17T14:20:50;15.50;;;14.70;;
20179;SDS011;10249;48.900;9.090;2022-07-17T14:23:18;15.13;;;14.43;;
20179;SDS011;10249;48.900;9.090;2022-07-17T14:25:46;15.57;;;14.88;;